createdAt,value
2023-01-29T00:00:21.328Z,1009.09
2023-01-29T00:01:21.303Z,1009.07
2023-01-29T00:02:21.379Z,1009.09
2023-01-29T00:03:21.363Z,1009.09
2023-01-29T00:04:21.288Z,1009.13
2023-01-29T00:05:28.011Z,1009.14
2023-01-29T00:06:21.259Z,1009.10
2023-01-29T00:07:21.237Z,1009.05
2023-01-29T00:08:21.233Z,1009.06
2023-01-29T00:09:21.221Z,1009.04
2023-01-29T00:10:21.245Z,1009.00
2023-01-29T00:11:21.194Z,1009.02
2023-01-29T00:12:21.218Z,1009.01
2023-01-29T00:13:21.170Z,1009.03
2023-01-29T00:14:21.169Z,1008.95
2023-01-29T00:15:21.157Z,1008.99
2023-01-29T00:16:21.141Z,1008.94
2023-01-29T00:17:21.178Z,1008.96
2023-01-29T00:18:21.125Z,1008.91
2023-01-29T00:19:21.115Z,1008.91
2023-01-29T00:20:21.100Z,1008.89
2023-01-29T00:21:21.088Z,1008.88
2023-01-29T00:22:21.070Z,1008.89
2023-01-29T00:23:21.087Z,1008.85
2023-01-29T00:24:21.065Z,1008.88
2023-01-29T00:25:21.081Z,1008.84
2023-01-29T00:26:21.022Z,1008.86
2023-01-29T00:27:21.013Z,1008.80
2023-01-29T00:28:21.022Z,1008.81
2023-01-29T00:29:21.012Z,1008.78
2023-01-29T00:30:20.985Z,1008.73
2023-01-29T00:31:21.132Z,1008.81
2023-01-29T00:32:21.114Z,1008.80
2023-01-29T00:33:20.947Z,1008.79
2023-01-29T00:34:20.949Z,1008.78
2023-01-29T00:35:20.929Z,1008.77
2023-01-29T00:36:20.921Z,1008.75
2023-01-29T00:37:20.894Z,1008.74
2023-01-29T00:38:20.898Z,1008.70
2023-01-29T00:39:20.892Z,1008.73
2023-01-29T00:40:20.879Z,1008.73
2023-01-29T00:41:20.860Z,1008.75
2023-01-29T00:42:20.847Z,1008.71
2023-01-29T00:43:20.835Z,1008.75
2023-01-29T00:44:20.823Z,1008.77
2023-01-29T00:45:20.812Z,1008.73
2023-01-29T00:46:20.829Z,1008.75
2023-01-29T00:47:20.791Z,1008.79
2023-01-29T00:48:20.795Z,1008.79
2023-01-29T00:49:20.786Z,1008.79
2023-01-29T00:50:20.753Z,1008.80
2023-01-29T00:51:20.745Z,1008.83
2023-01-29T00:52:20.726Z,1008.81
2023-01-29T00:53:20.729Z,1008.83
2023-01-29T00:54:20.709Z,1008.83
2023-01-29T00:55:20.692Z,1008.82
2023-01-29T00:56:20.685Z,1008.81
2023-01-29T00:57:20.676Z,1008.81
2023-01-29T00:58:20.668Z,1008.78
2023-01-29T00:59:20.656Z,1008.78
2023-01-29T01:00:20.645Z,1008.83
2023-01-29T01:01:20.629Z,1008.76
2023-01-29T01:02:20.751Z,1008.77
2023-01-29T01:03:20.604Z,1008.75
2023-01-29T01:04:20.610Z,1008.74
2023-01-29T01:05:20.587Z,1008.75
2023-01-29T01:06:20.574Z,1008.73
2023-01-29T01:07:20.557Z,1008.74
2023-01-29T01:08:20.550Z,1008.70
2023-01-29T01:09:20.533Z,1008.71
2023-01-29T01:10:20.546Z,1008.74
2023-01-29T01:11:20.508Z,1008.73
2023-01-29T01:12:20.515Z,1008.72
2023-01-29T01:13:20.490Z,1008.71
2023-01-29T01:14:20.478Z,1008.75
2023-01-29T01:15:20.464Z,1008.78
2023-01-29T01:16:20.507Z,1008.77
2023-01-29T01:17:20.441Z,1008.77
2023-01-29T01:18:20.429Z,1008.79
2023-01-29T01:19:20.429Z,1008.80
2023-01-29T01:20:20.413Z,1008.80
2023-01-29T01:21:20.413Z,1008.80
2023-01-29T01:22:20.404Z,1008.83
2023-01-29T01:23:20.379Z,1008.85
2023-01-29T01:24:20.490Z,1008.85
2023-01-29T01:25:20.362Z,1008.90
2023-01-29T01:26:20.373Z,1008.90
2023-01-29T01:27:20.342Z,1008.92
2023-01-29T01:28:20.311Z,1008.89
2023-01-29T01:29:20.330Z,1008.87
2023-01-29T01:30:20.298Z,1008.81
2023-01-29T01:31:20.430Z,1008.76
2023-01-29T01:32:20.274Z,1008.80
2023-01-29T01:33:20.288Z,1008.78
2023-01-29T01:34:20.250Z,1008.79
2023-01-29T01:35:20.240Z,1008.82
2023-01-29T01:36:20.231Z,1008.82
2023-01-29T01:37:20.236Z,1008.77
2023-01-29T01:38:20.223Z,1008.73
2023-01-29T01:39:20.195Z,1008.73
2023-01-29T01:40:20.197Z,1008.66
2023-01-29T01:41:20.176Z,1008.62
2023-01-29T01:42:20.156Z,1008.65
2023-01-29T01:43:20.167Z,1008.59
2023-01-29T01:44:20.151Z,1008.53
2023-01-29T01:45:20.132Z,1008.49
2023-01-29T01:46:20.119Z,1008.42
2023-01-29T01:47:20.115Z,1008.39
2023-01-29T01:48:20.112Z,1008.38
2023-01-29T01:49:20.074Z,1008.33
2023-01-29T01:50:20.100Z,1008.30
2023-01-29T01:51:20.065Z,1008.25
2023-01-29T01:52:20.045Z,1008.23
2023-01-29T01:53:20.056Z,1008.21
2023-01-29T01:54:20.067Z,1008.25
2023-01-29T01:55:20.024Z,1008.30
2023-01-29T01:56:20.004Z,1008.34
2023-01-29T01:57:20.003Z,1008.38
2023-01-29T01:58:19.972Z,1008.33
2023-01-29T01:59:19.985Z,1008.36
2023-01-29T02:00:19.988Z,1008.35
2023-01-29T02:01:19.998Z,1008.37
2023-01-29T02:02:19.990Z,1008.36
2023-01-29T02:03:19.944Z,1008.36
2023-01-29T02:04:19.908Z,1008.36
2023-01-29T02:05:19.904Z,1008.43
2023-01-29T02:06:19.897Z,1008.42
2023-01-29T02:07:19.911Z,1008.36
2023-01-29T02:08:19.879Z,1008.41
2023-01-29T02:09:19.851Z,1008.45
2023-01-29T02:10:19.841Z,1008.50
2023-01-29T02:11:19.856Z,1008.50
2023-01-29T02:12:19.828Z,1008.50
2023-01-29T02:13:19.793Z,1008.52
2023-01-29T02:14:19.804Z,1008.50
2023-01-29T02:15:19.792Z,1008.48
2023-01-29T02:16:19.763Z,1008.53
2023-01-29T02:17:19.779Z,1008.53
2023-01-29T02:18:19.786Z,1008.53
2023-01-29T02:19:19.727Z,1008.52
2023-01-29T02:20:19.776Z,1008.49
2023-01-29T02:21:19.708Z,1008.50
2023-01-29T02:22:19.711Z,1008.51
2023-01-29T02:23:19.711Z,1008.51
2023-01-29T02:24:19.814Z,1008.56
2023-01-29T02:25:19.676Z,1008.52
2023-01-29T02:26:19.655Z,1008.56
2023-01-29T02:27:19.657Z,1008.58
2023-01-29T02:28:19.628Z,1008.52
2023-01-29T02:29:19.634Z,1008.53
2023-01-29T02:30:19.614Z,1008.53
2023-01-29T02:31:19.748Z,1008.61
2023-01-29T02:32:19.589Z,1008.59
2023-01-29T02:33:19.589Z,1008.58
2023-01-29T02:34:19.559Z,1008.62
2023-01-29T02:35:19.552Z,1008.62
2023-01-29T02:36:19.540Z,1008.64
2023-01-29T02:37:19.525Z,1008.64
2023-01-29T02:38:19.518Z,1008.69
2023-01-29T02:39:19.517Z,1008.68
2023-01-29T02:40:19.496Z,1008.78
2023-01-29T02:41:19.480Z,1008.78
2023-01-29T02:42:19.479Z,1008.78
2023-01-29T02:43:19.474Z,1008.75
2023-01-29T02:44:19.454Z,1008.80
2023-01-29T02:45:19.438Z,1008.81
2023-01-29T02:46:19.535Z,1008.80
2023-01-29T02:47:19.426Z,1008.81
2023-01-29T02:48:19.399Z,1008.81
2023-01-29T02:49:19.393Z,1008.81
2023-01-29T02:50:19.552Z,1008.81
2023-01-29T02:51:19.382Z,1008.78
2023-01-29T02:52:19.366Z,1008.80
2023-01-29T02:53:19.340Z,1008.87
2023-01-29T02:54:19.324Z,1008.89
2023-01-29T02:55:19.349Z,1008.93
2023-01-29T02:56:19.312Z,1008.90
2023-01-29T02:57:19.315Z,1008.90
2023-01-29T02:58:19.293Z,1008.88
2023-01-29T02:59:19.272Z,1008.88
2023-01-29T03:00:19.527Z,1008.89
2023-01-29T03:01:19.306Z,1008.86
2023-01-29T03:02:19.320Z,1008.84
2023-01-29T03:03:19.264Z,1008.81
2023-01-29T03:04:19.228Z,1008.78
2023-01-29T03:05:19.207Z,1008.77
2023-01-29T03:06:19.198Z,1008.77
2023-01-29T03:07:19.188Z,1008.84
2023-01-29T03:08:19.177Z,1008.82
2023-01-29T03:09:19.191Z,1008.82
2023-01-29T03:10:19.161Z,1008.77
2023-01-29T03:11:19.145Z,1008.69
2023-01-29T03:12:20.118Z,1008.67
2023-01-29T03:13:19.118Z,1008.71
2023-01-29T03:14:19.120Z,1008.69
2023-01-29T03:15:19.105Z,1008.71
2023-01-29T03:16:19.151Z,1008.69
2023-01-29T03:17:19.072Z,1008.71
2023-01-29T03:18:19.067Z,1008.67
2023-01-29T03:19:19.062Z,1008.63
2023-01-29T03:20:19.497Z,1008.59
2023-01-29T03:21:19.054Z,1008.59
2023-01-29T03:22:19.014Z,1008.59
2023-01-29T03:23:19.009Z,1008.64
2023-01-29T03:24:19.039Z,1008.60
2023-01-29T03:25:19.001Z,1008.60
2023-01-29T03:26:18.985Z,1008.62
2023-01-29T03:27:18.956Z,1008.60
2023-01-29T03:28:18.955Z,1008.62
2023-01-29T03:29:18.941Z,1008.66
2023-01-29T03:30:19.027Z,1008.66
2023-01-29T03:31:19.044Z,1008.68
2023-01-29T03:32:18.899Z,1008.70
2023-01-29T03:33:18.898Z,1008.70
2023-01-29T03:34:18.884Z,1008.66
2023-01-29T03:35:18.864Z,1008.70
2023-01-29T03:36:18.858Z,1008.68
2023-01-29T03:37:18.855Z,1008.69
2023-01-29T03:38:18.827Z,1008.66
2023-01-29T03:39:18.863Z,1008.69
2023-01-29T03:40:19.127Z,1008.70
2023-01-29T03:41:18.793Z,1008.71
2023-01-29T03:42:18.814Z,1008.75
2023-01-29T03:43:18.777Z,1008.82
2023-01-29T03:44:18.789Z,1008.78
2023-01-29T03:45:18.770Z,1008.87
2023-01-29T03:46:18.738Z,1008.88
2023-01-29T03:47:18.731Z,1008.84
2023-01-29T03:48:18.717Z,1008.87
2023-01-29T03:49:18.714Z,1008.78
2023-01-29T03:50:18.911Z,1008.80
2023-01-29T03:51:18.715Z,1008.73
2023-01-29T03:52:18.686Z,1008.74
2023-01-29T03:53:18.671Z,1008.77
2023-01-29T03:54:18.650Z,1008.76
2023-01-29T03:55:18.634Z,1008.77
2023-01-29T03:56:18.632Z,1008.75
2023-01-29T03:57:18.619Z,1008.74
2023-01-29T03:58:18.596Z,1008.78
2023-01-29T03:59:18.588Z,1008.79
2023-01-29T04:00:18.944Z,1008.79
2023-01-29T04:01:18.639Z,1008.68
2023-01-29T04:02:18.579Z,1008.65
2023-01-29T04:03:18.535Z,1008.60
2023-01-29T04:04:18.599Z,1008.65
2023-01-29T04:05:18.535Z,1008.62
2023-01-29T04:06:18.515Z,1008.61
2023-01-29T04:07:18.501Z,1008.64
2023-01-29T04:08:18.498Z,1008.62
2023-01-29T04:09:18.481Z,1008.59
2023-01-29T04:10:18.727Z,1008.58
2023-01-29T04:11:18.471Z,1008.53
2023-01-29T04:12:18.431Z,1008.50
2023-01-29T04:13:18.430Z,1008.52
2023-01-29T04:14:18.442Z,1008.47
2023-01-29T04:15:18.412Z,1008.50
2023-01-29T04:16:18.505Z,1008.46
2023-01-29T04:17:18.392Z,1008.54
2023-01-29T04:18:18.369Z,1008.50
2023-01-29T04:19:18.370Z,1008.44
2023-01-29T04:20:18.739Z,1008.40
2023-01-29T04:21:18.332Z,1008.41
2023-01-29T04:22:18.320Z,1008.35
2023-01-29T04:23:18.303Z,1008.32
2023-01-29T04:24:18.344Z,1008.35
2023-01-29T04:25:18.283Z,1008.31
2023-01-29T04:26:18.281Z,1008.37
2023-01-29T04:27:18.280Z,1008.31
2023-01-29T04:28:18.250Z,1008.31
2023-01-29T04:29:18.257Z,1008.29
2023-01-29T04:30:18.591Z,1008.32
2023-01-29T04:31:18.313Z,1008.29
2023-01-29T04:32:18.218Z,1008.29
2023-01-29T04:33:18.195Z,1008.26
2023-01-29T04:34:18.204Z,1008.27
2023-01-29T04:35:18.173Z,1008.24
2023-01-29T04:36:18.154Z,1008.25
2023-01-29T04:37:18.150Z,1008.22
2023-01-29T04:38:18.127Z,1008.22
2023-01-29T04:39:18.129Z,1008.23
2023-01-29T04:40:18.535Z,1008.21
2023-01-29T04:41:18.106Z,1008.22
2023-01-29T04:42:18.106Z,1008.22
2023-01-29T04:43:18.080Z,1008.18
2023-01-29T04:44:18.077Z,1008.23
2023-01-29T04:45:18.066Z,1008.21
2023-01-29T04:46:18.040Z,1008.22
2023-01-29T04:47:18.099Z,1008.24
2023-01-29T04:48:18.044Z,1008.23
2023-01-29T04:49:18.030Z,1008.19
2023-01-29T04:50:18.382Z,1008.15
2023-01-29T04:51:17.982Z,1008.11
2023-01-29T04:52:17.976Z,1008.08
2023-01-29T04:53:17.962Z,1008.05
2023-01-29T04:54:17.974Z,1008.05
2023-01-29T04:55:17.937Z,1008.05
2023-01-29T04:56:17.921Z,1008.02
2023-01-29T04:57:17.925Z,1008.06
2023-01-29T04:58:17.917Z,1008.07
2023-01-29T04:59:17.885Z,1008.06
2023-01-29T05:00:18.341Z,1008.08
2023-01-29T05:01:18.048Z,1008.08
2023-01-29T05:02:17.870Z,1008.08
2023-01-29T05:03:17.855Z,1008.08
2023-01-29T05:04:17.835Z,1008.11
2023-01-29T05:05:17.818Z,1008.08
2023-01-29T05:06:17.807Z,1008.05
2023-01-29T05:07:17.806Z,1008.03
2023-01-29T05:08:17.805Z,1008.05
2023-01-29T05:09:17.794Z,1008.02
2023-01-29T05:10:18.248Z,1008.01
2023-01-29T05:11:17.760Z,1008.04
2023-01-29T05:12:17.743Z,1007.97
2023-01-29T05:13:17.732Z,1008.01
2023-01-29T05:14:17.723Z,1008.04
2023-01-29T05:15:17.721Z,1008.08
2023-01-29T05:16:17.779Z,1008.09
2023-01-29T05:17:17.688Z,1008.12
2023-01-29T05:18:17.676Z,1008.12
2023-01-29T05:19:17.676Z,1008.05
2023-01-29T05:20:18.136Z,1008.02
2023-01-29T05:21:17.663Z,1008.04
2023-01-29T05:22:17.633Z,1008.00
2023-01-29T05:23:17.646Z,1007.95
2023-01-29T05:24:17.633Z,1007.98
2023-01-29T05:25:17.595Z,1007.93
2023-01-29T05:26:17.622Z,1007.91
2023-01-29T05:27:17.623Z,1007.86
2023-01-29T05:28:17.564Z,1007.83
2023-01-29T05:29:17.564Z,1007.82
2023-01-29T05:30:17.909Z,1007.83
2023-01-29T05:31:17.693Z,1007.78
2023-01-29T05:32:17.535Z,1007.82
2023-01-29T05:33:17.527Z,1007.80
2023-01-29T05:34:17.504Z,1007.79
2023-01-29T05:35:17.477Z,1007.80
2023-01-29T05:36:17.464Z,1007.77
2023-01-29T05:37:17.544Z,1007.74
2023-01-29T05:38:17.441Z,1007.73
2023-01-29T05:39:17.438Z,1007.77
2023-01-29T05:40:17.817Z,1007.80
2023-01-29T05:41:17.429Z,1007.79
2023-01-29T05:42:17.401Z,1007.83
2023-01-29T05:43:17.400Z,1007.81
2023-01-29T05:44:17.370Z,1007.81
2023-01-29T05:45:17.370Z,1007.78
2023-01-29T05:46:17.379Z,1007.84
2023-01-29T05:47:17.339Z,1007.84
2023-01-29T05:48:17.340Z,1007.85
2023-01-29T05:49:17.327Z,1007.81
2023-01-29T05:50:17.706Z,1007.78
2023-01-29T05:51:17.320Z,1007.80
2023-01-29T05:52:17.274Z,1007.80
2023-01-29T05:53:17.276Z,1007.77
2023-01-29T05:54:17.273Z,1007.79
2023-01-29T05:55:17.262Z,1007.77
2023-01-29T05:56:17.239Z,1007.77
2023-01-29T05:57:17.234Z,1007.79
2023-01-29T05:58:17.226Z,1007.80
2023-01-29T05:59:17.235Z,1007.85
2023-01-29T06:00:17.597Z,1007.87
2023-01-29T06:01:17.188Z,1007.87
2023-01-29T06:02:17.165Z,1007.93
2023-01-29T06:03:17.226Z,1007.92
2023-01-29T06:04:17.134Z,1007.99
2023-01-29T06:05:17.134Z,1007.99
2023-01-29T06:06:17.136Z,1008.00
2023-01-29T06:07:17.117Z,1007.93
2023-01-29T06:08:17.095Z,1007.95
2023-01-29T06:09:17.109Z,1008.00
2023-01-29T06:10:17.505Z,1007.98
2023-01-29T06:11:17.085Z,1008.00
2023-01-29T06:12:17.049Z,1008.00
2023-01-29T06:13:17.063Z,1008.02
2023-01-29T06:14:17.027Z,1008.04
2023-01-29T06:15:17.019Z,1008.08
2023-01-29T06:16:17.132Z,1008.06
2023-01-29T06:17:17.003Z,1008.05
2023-01-29T06:18:16.982Z,1008.07
2023-01-29T06:19:16.960Z,1008.13
2023-01-29T06:20:17.327Z,1008.14
2023-01-29T06:21:19.712Z,1008.15
2023-01-29T06:22:16.953Z,1008.23
2023-01-29T06:23:16.930Z,1008.18
2023-01-29T06:24:17.001Z,1008.25
2023-01-29T06:25:16.908Z,1008.25
2023-01-29T06:26:16.885Z,1008.24
2023-01-29T06:27:16.879Z,1008.29
2023-01-29T06:28:16.894Z,1008.27
2023-01-29T06:29:16.858Z,1008.29
2023-01-29T06:30:17.284Z,1008.25
2023-01-29T06:31:33.109Z,1008.29
2023-01-29T06:32:16.854Z,1008.26
2023-01-29T06:33:16.819Z,1008.25
2023-01-29T06:34:16.809Z,1008.28
2023-01-29T06:35:16.793Z,1008.34
2023-01-29T06:36:16.771Z,1008.38
2023-01-29T06:37:16.774Z,1008.38
2023-01-29T06:38:16.758Z,1008.40
2023-01-29T06:39:16.747Z,1008.38
2023-01-29T06:40:17.233Z,1008.35
2023-01-29T06:41:16.731Z,1008.36
2023-01-29T06:42:16.700Z,1008.35
2023-01-29T06:43:16.692Z,1008.39
2023-01-29T06:44:16.686Z,1008.38
2023-01-29T06:45:16.688Z,1008.38
2023-01-29T06:46:16.662Z,1008.39
2023-01-29T06:47:16.639Z,1008.39
2023-01-29T06:48:16.636Z,1008.41
2023-01-29T06:49:16.622Z,1008.39
2023-01-29T06:50:17.200Z,1008.36
2023-01-29T06:51:16.609Z,1008.37
2023-01-29T06:52:16.590Z,1008.35
2023-01-29T06:53:16.580Z,1008.30
2023-01-29T06:54:16.563Z,1008.26
2023-01-29T06:55:16.549Z,1008.27
2023-01-29T06:56:16.553Z,1008.26
2023-01-29T06:57:16.534Z,1008.30
2023-01-29T06:58:16.517Z,1008.30
2023-01-29T06:59:16.504Z,1008.29
2023-01-29T07:00:16.882Z,1008.29
2023-01-29T07:01:33.477Z,1008.32
2023-01-29T07:02:16.587Z,1008.29
2023-01-29T07:03:16.455Z,1008.28
2023-01-29T07:04:16.443Z,1008.29
2023-01-29T07:05:16.437Z,1008.26
2023-01-29T07:06:16.421Z,1008.30
2023-01-29T07:07:16.409Z,1008.26
2023-01-29T07:08:16.421Z,1008.31
2023-01-29T07:09:16.382Z,1008.35
2023-01-29T07:10:16.759Z,1008.34
2023-01-29T07:11:16.364Z,1008.34
2023-01-29T07:12:16.363Z,1008.33
2023-01-29T07:13:16.345Z,1008.32
2023-01-29T07:14:16.349Z,1008.29
2023-01-29T07:15:16.318Z,1008.30
2023-01-29T07:16:16.369Z,1008.26
2023-01-29T07:17:16.300Z,1008.33
2023-01-29T07:18:16.283Z,1008.36
2023-01-29T07:19:16.286Z,1008.31
2023-01-29T07:20:16.595Z,1008.31
2023-01-29T07:21:16.255Z,1008.33
2023-01-29T07:22:16.234Z,1008.32
2023-01-29T07:23:16.248Z,1008.36
2023-01-29T07:24:16.276Z,1008.39
2023-01-29T07:25:16.216Z,1008.38
2023-01-29T07:26:16.191Z,1008.31
2023-01-29T07:27:16.176Z,1008.30
2023-01-29T07:28:16.166Z,1008.28
2023-01-29T07:29:16.162Z,1008.25
2023-01-29T07:30:16.503Z,1008.30
2023-01-29T07:31:16.239Z,1008.30
2023-01-29T07:32:16.163Z,1008.35
2023-01-29T07:33:16.108Z,1008.37
2023-01-29T07:34:16.117Z,1008.39
2023-01-29T07:35:16.111Z,1008.42
2023-01-29T07:36:16.090Z,1008.40
2023-01-29T07:37:16.063Z,1008.40
2023-01-29T07:38:16.076Z,1008.42
2023-01-29T07:39:16.052Z,1008.34
2023-01-29T07:40:16.445Z,1008.30
2023-01-29T07:41:16.039Z,1008.28
2023-01-29T07:42:16.016Z,1008.27
2023-01-29T07:43:16.006Z,1008.24
2023-01-29T07:44:15.993Z,1008.20
2023-01-29T07:45:15.979Z,1008.22
2023-01-29T07:46:16.116Z,1008.25
2023-01-29T07:47:17.274Z,1008.20
2023-01-29T07:48:15.970Z,1008.18
2023-01-29T07:49:15.952Z,1008.14
2023-01-29T07:50:16.306Z,1008.14
2023-01-29T07:51:15.914Z,1008.18
2023-01-29T07:52:15.916Z,1008.24
2023-01-29T07:53:15.914Z,1008.23
2023-01-29T07:54:15.877Z,1008.20
2023-01-29T07:55:15.868Z,1008.22
2023-01-29T07:56:15.858Z,1008.23
2023-01-29T07:57:15.841Z,1008.22
2023-01-29T07:58:15.837Z,1008.19
2023-01-29T07:59:15.830Z,1008.21
2023-01-29T08:00:16.255Z,1008.15
2023-01-29T08:01:15.904Z,1008.18
2023-01-29T08:02:15.864Z,1008.11
2023-01-29T08:03:15.780Z,1008.07
2023-01-29T08:04:15.765Z,1008.10
2023-01-29T08:05:15.773Z,1008.12
2023-01-29T08:06:15.748Z,1008.10
2023-01-29T08:07:15.754Z,1008.10
2023-01-29T08:08:15.743Z,1008.10
2023-01-29T08:09:15.714Z,1008.17
2023-01-29T08:10:16.118Z,1008.13
2023-01-29T08:11:15.695Z,1008.10
2023-01-29T08:12:15.670Z,1008.10
2023-01-29T08:13:15.712Z,1008.05
2023-01-29T08:14:15.662Z,1008.13
2023-01-29T08:15:15.640Z,1008.12
2023-01-29T08:16:15.724Z,1008.10
2023-01-29T08:17:15.623Z,1008.08
2023-01-29T08:18:15.612Z,1008.08
2023-01-29T08:19:15.592Z,1008.09
2023-01-29T08:20:15.852Z,1008.13
2023-01-29T08:21:15.584Z,1008.14
2023-01-29T08:22:15.554Z,1008.15
2023-01-29T08:23:15.553Z,1008.13
2023-01-29T08:24:15.550Z,1008.10
2023-01-29T08:25:15.533Z,1008.09
2023-01-29T08:26:15.517Z,1008.09
2023-01-29T08:27:15.503Z,1008.11
2023-01-29T08:28:15.542Z,1008.11
2023-01-29T08:29:15.489Z,1008.03
2023-01-29T08:30:16.369Z,1008.01
2023-01-29T08:31:15.511Z,1007.96
2023-01-29T08:32:15.447Z,1007.90
2023-01-29T08:33:17.537Z,1007.84
2023-01-29T08:34:15.424Z,1007.87
2023-01-29T08:35:15.411Z,1007.87
2023-01-29T08:36:15.405Z,1007.81
2023-01-29T08:37:15.397Z,1007.84
2023-01-29T08:38:15.402Z,1007.83
2023-01-29T08:39:15.395Z,1007.87
2023-01-29T08:40:15.623Z,1007.91
2023-01-29T08:41:15.344Z,1007.92
2023-01-29T08:42:15.350Z,1007.93
2023-01-29T08:43:15.346Z,1007.94
2023-01-29T08:44:15.320Z,1007.99
2023-01-29T08:45:15.304Z,1008.03
2023-01-29T08:46:15.404Z,1008.04
2023-01-29T08:47:15.278Z,1008.04
2023-01-29T08:48:15.291Z,1008.01
2023-01-29T08:49:15.258Z,1007.98
2023-01-29T08:50:15.613Z,1008.01
2023-01-29T08:51:15.246Z,1008.00
2023-01-29T08:52:15.227Z,1007.96
2023-01-29T08:53:15.220Z,1007.97
2023-01-29T08:54:15.211Z,1007.94
2023-01-29T08:55:15.614Z,1007.93
2023-01-29T08:56:15.192Z,1007.86
2023-01-29T08:57:15.173Z,1007.89
2023-01-29T08:58:15.194Z,1007.91
2023-01-29T08:59:15.157Z,1007.91
2023-01-29T09:00:15.494Z,1007.87
2023-01-29T09:01:15.153Z,1007.88
2023-01-29T09:02:15.184Z,1007.87
2023-01-29T09:03:15.095Z,1007.83
2023-01-29T09:04:15.110Z,1007.84
2023-01-29T09:05:15.556Z,1007.86
2023-01-29T09:06:15.063Z,1007.86
2023-01-29T09:07:15.047Z,1007.90
2023-01-29T09:08:15.055Z,1007.93
2023-01-29T09:09:15.037Z,1007.87
2023-01-29T09:10:15.050Z,1007.90
2023-01-29T09:11:15.019Z,1007.85
2023-01-29T09:12:15.004Z,1007.84
2023-01-29T09:13:14.991Z,1007.85
2023-01-29T09:14:14.985Z,1007.88
2023-01-29T09:15:15.629Z,1007.87
2023-01-29T09:16:15.019Z,1007.84
2023-01-29T09:17:14.975Z,1007.81
2023-01-29T09:18:14.930Z,1007.82
2023-01-29T09:19:14.923Z,1007.86
2023-01-29T09:20:14.913Z,1007.86
2023-01-29T09:21:14.908Z,1007.87
2023-01-29T09:22:14.909Z,1007.90
2023-01-29T09:23:14.975Z,1007.91
2023-01-29T09:24:14.861Z,1007.91
2023-01-29T09:25:15.497Z,1007.83
2023-01-29T09:26:14.955Z,1007.84
2023-01-29T09:27:14.839Z,1007.84
2023-01-29T09:28:14.820Z,1007.83
2023-01-29T09:29:14.818Z,1007.83
2023-01-29T09:30:14.809Z,1007.81
2023-01-29T09:31:15.066Z,1007.81
2023-01-29T09:32:16.848Z,1007.82
2023-01-29T09:33:14.763Z,1007.87
2023-01-29T09:34:14.779Z,1007.89
2023-01-29T09:35:15.083Z,1007.86
2023-01-29T09:36:14.743Z,1007.84
2023-01-29T09:37:14.730Z,1007.85
2023-01-29T09:38:14.721Z,1007.78
2023-01-29T09:39:14.703Z,1007.69
2023-01-29T09:40:14.695Z,1007.66
2023-01-29T09:41:14.694Z,1007.64
2023-01-29T09:42:14.692Z,1007.60
2023-01-29T09:43:14.669Z,1007.60
2023-01-29T09:44:14.648Z,1007.61
2023-01-29T09:45:14.948Z,1007.61
2023-01-29T09:46:14.712Z,1007.62
2023-01-29T09:47:14.623Z,1007.64
2023-01-29T09:48:14.607Z,1007.65
2023-01-29T09:49:14.588Z,1007.67
2023-01-29T09:50:14.585Z,1007.63
2023-01-29T09:51:14.567Z,1007.67
2023-01-29T09:52:14.567Z,1007.58
2023-01-29T09:53:14.561Z,1007.57
2023-01-29T09:54:14.550Z,1007.60
2023-01-29T09:55:15.116Z,1007.63
2023-01-29T09:56:14.529Z,1007.56
2023-01-29T09:57:14.523Z,1007.57
2023-01-29T09:58:14.487Z,1007.61
2023-01-29T09:59:14.492Z,1007.57
2023-01-29T10:00:14.471Z,1007.58
2023-01-29T10:01:14.533Z,1007.60
2023-01-29T10:02:14.560Z,1007.60
2023-01-29T10:03:14.446Z,1007.57
2023-01-29T10:04:14.532Z,1007.56
2023-01-29T10:05:14.853Z,1007.56
2023-01-29T10:06:14.400Z,1007.54
2023-01-29T10:07:14.404Z,1007.55
2023-01-29T10:08:14.385Z,1007.54
2023-01-29T10:09:14.380Z,1007.58
2023-01-29T10:10:14.362Z,1007.51
2023-01-29T10:11:14.339Z,1007.52
2023-01-29T10:12:14.365Z,1007.52
2023-01-29T10:13:14.360Z,1007.50
2023-01-29T10:14:14.306Z,1007.49
2023-01-29T10:15:14.594Z,1007.50
2023-01-29T10:16:14.318Z,1007.56
2023-01-29T10:17:14.314Z,1007.57
2023-01-29T10:18:14.269Z,1007.54
2023-01-29T10:19:14.303Z,1007.54
2023-01-29T10:20:14.251Z,1007.53
2023-01-29T10:21:14.247Z,1007.49
2023-01-29T10:22:14.223Z,1007.54
2023-01-29T10:23:14.216Z,1007.57
2023-01-29T10:24:14.227Z,1007.55
2023-01-29T10:25:14.262Z,1007.57
2023-01-29T10:26:14.236Z,1007.63
2023-01-29T10:27:14.171Z,1007.60
2023-01-29T10:28:14.173Z,1007.61
2023-01-29T10:29:14.157Z,1007.63
2023-01-29T10:30:14.143Z,1007.60
2023-01-29T10:31:14.242Z,1007.63
2023-01-29T10:32:14.191Z,1007.62
2023-01-29T10:33:14.112Z,1007.64
2023-01-29T10:34:14.101Z,1007.61
2023-01-29T10:35:14.435Z,1007.61
2023-01-29T10:36:14.083Z,1007.59
2023-01-29T10:37:14.063Z,1007.57
2023-01-29T10:38:14.051Z,1007.52
2023-01-29T10:39:14.044Z,1007.52
2023-01-29T10:40:14.037Z,1007.53
2023-01-29T10:41:14.098Z,1007.47
2023-01-29T10:42:14.003Z,1007.49
2023-01-29T10:43:14.004Z,1007.49
2023-01-29T10:44:13.979Z,1007.46
2023-01-29T10:45:14.016Z,1007.47
2023-01-29T10:46:13.973Z,1007.43
2023-01-29T10:47:14.000Z,1007.38
2023-01-29T10:48:13.941Z,1007.35
2023-01-29T10:49:13.940Z,1007.34
2023-01-29T10:50:13.932Z,1007.35
2023-01-29T10:51:13.900Z,1007.26
2023-01-29T10:52:13.908Z,1007.17
2023-01-29T10:53:13.883Z,1007.17
2023-01-29T10:54:13.876Z,1007.09
2023-01-29T10:55:14.264Z,1007.09
2023-01-29T10:56:22.265Z,1007.02
2023-01-29T10:57:13.836Z,1007.06
2023-01-29T10:58:13.849Z,1007.01
2023-01-29T10:59:13.817Z,1007.01
2023-01-29T11:00:13.811Z,1006.96
2023-01-29T11:01:13.913Z,1006.97
2023-01-29T11:02:13.798Z,1006.92
2023-01-29T11:03:26.333Z,1006.92
2023-01-29T11:04:13.778Z,1006.88
2023-01-29T11:05:13.975Z,1006.90
2023-01-29T11:06:13.737Z,1006.90
